x

Half Moon Bay - 24nm Ssw Of San Francisco, Ca (46012) Wave Buoy

7:50am - Mon 6th Jul 2015 All times are PDT. -7 hours from GMT.

  • Sig Wave height 3.9ft
  • Swell Direction
  • Peak Period 16s
  • Average Period 9s
  • Wind
    4mph
  • Sea Temp 61°f
  • Air Temp 61°f
  • Sea Pressure 1017.7mb
  • Half Moon Bay - 24nm Ssw Of San Francisco, Ca
  • Half Moon Bay - 24nm Ssw Of San Francisco, Ca

More Historic Weather Station data

Upgrade to MSW Pro to gain access to the past 30 days of data for over 8000 Wavebouys and Weather Stations around the globe.

Join Pro

Comparision Forecast

View Surf forecast
   
Mon 07/06 7:50am 4ft 16s 9s 4
mph
1017.7mb 61f 61f
6:50am 4ft 15s 9s 2
mph
1017.2mb 61f 61f
5:50am 3.5ft 14s 9s 7
mph
1016.7mb 61f 61f
4:50am 3.5ft 13s 9s 4 7 mph 1016.2mb 61f 61f
3:50am 3.5ft 15s 9s 2 4 mph 1016mb 60f 60f
2:50am 3.5ft 10s 8s 4 7 mph 1015.9mb 60f 59f
1:50am 3.5ft 15s 8s 4
mph
1015.6mb 60f 60f
12:50am 3.5ft 9s 8s 4
mph
1015.4mb 60f 60f
Sun 07/05 11:50pm 3.5ft 15s 8s 7 9 mph 1015.3mb 60f 60f
10:50pm 3.5ft 15s 8s 7 11 mph 1015.2mb 60f 61f
9:50pm 3.5ft 14s 8s 7 9 mph 1014.9mb 61f 61f
8:50pm 4ft 14s 9s 4 7 mph 1014.3mb 61f 61f
7:50pm 3.5ft 15s 8s 4
mph
1014mb 61f 61f
6:50pm 3.5ft 16s 8s 2 4 mph 1013.7mb 61f 61f
5:50pm 3.5ft 15s 9s 4 7 mph 1013.7mb 61f 62f
4:50pm 3.5ft 14s 8s 4
mph
1013.8mb 61f 62f
3:50pm 3.5ft 15s 8s 4
mph
1014.2mb 61f 61f
2:50pm 3.5ft 14s 8s 7 9 mph 1014.5mb 61f 60f
1:50pm 3.5ft 14s 8s 7 9 mph 1014.8mb 61f 61f
12:50pm 3.5ft 15s 8s 7 9 mph 1014.9mb 60f 60f
11:50am 3.5ft 16s 8s 7
mph
1014.9mb 60f 60f
10:50am 3.5ft 14s 8s 4 7 mph 1014.7mb 60f 60f
9:50am 3.5ft 14s 7s 7 11 mph 1014.3mb 60f 60f
8:50am 3.5ft 15s 7s 7 9 mph 1014mb 59f 60f
7:50am 4ft 15s 8s 9 11 mph 1013.6mb 59f 60f
6:50am 4ft 15s 8s 9 13 mph 1013mb 59f 60f
5:50am 3.5ft 14s 8s 7 9 mph 1012.2mb 59f 60f
4:50am 3.5ft 15s 8s 7 9 mph 1011.8mb 60f 60f
3:50am 3.5ft 15s 8s 7 9 mph 1011.4mb 60f 60f
2:50am 3.5ft 15s 8s 9 11 mph 1011.5mb 60f 60f
1:50am 3.5ft 14s 8s 7 11 mph 1011.3mb 60f 60f
12:50am 3.5ft 14s 8s 9 11 mph 1011.3mb 59f 60f
Sat 07/04 11:50pm 3.5ft 16s 8s 7 9 mph 1011.4mb 60f 60f
10:50pm 3.5ft 8s 7s 4 7 mph 1011.7mb 60f 60f
9:50pm 4ft 15s 8s 7 9 mph 1011.3mb 60f 60f
8:50pm 4ft 14s 7s 2 4 mph 1011mb 60f 60f
7:50pm 3.5ft 15s 8s 4 9 mph 1010.6mb 60f 60f
6:50pm 4ft 9s 8s 7 9 mph 1010.6mb 60f 60f
5:50pm 4ft 15s 8s 7
mph
1010.8mb 60f 60f
4:50pm 4ft 15s 8s 7 9 mph 1010.9mb 60f 60f
3:50pm 4ft 9s 8s 4 7 mph 1011.1mb 60f 60f
2:50pm 4ft 9s 8s 4 7 mph 1011.1mb 60f 60f
1:50pm 4ft 9s 8s 4 7 mph 1011.4mb 60f 60f
12:50pm 3.5ft 9s 8s 4 7 mph 1011.5mb 60f 59f
11:50am 4.5ft 9s 8s 4 7 mph 1011.4mb 60f 59f
10:50am 4.5ft 9s 8s 7
mph
1011.2mb 60f 59f
9:50am 4.5ft 9s 8s 2 4 mph 1011.4mb 60f 59f
8:50am 4ft 9s 8s 2
mph
1011.4mb 60f 58f
7:50am 4.5ft 9s 8s 2 4 mph 1011.2mb 60f 59f
6:50am 4.5ft 8s 8s 4
mph
1011mb 60f 58f
5:50am 4.5ft 10s 8s  -  mph 1011mb 60f 58f
4:50am 4.5ft 10s 8s 4 7 mph 1011.1mb 59f 58f
3:50am 4.5ft 9s 8s 4
mph
1011.1mb 59f 59f
2:50am 4ft 10s 8s 4
mph
1011.2mb 59f 59f
1:50am 4ft 8s 8s 4 7 mph 1011.3mb 59f 59f
12:50am 4ft 9s 8s 2 4 mph 1011.5mb 59f 59f
Fri 07/03 11:50pm 4.5ft 9s 8s 4 7 mph 1011.7mb 60f 59f
10:50pm 4ft 9s 8s 4
mph
1011.8mb 60f 59f
9:50pm 3.5ft 9s 8s 2 4 mph 1011.6mb 60f 59f
8:50pm 4.5ft 9s 7s 4 7 mph 1011.5mb 60f 60f
7:50pm 4.5ft 9s 7s 2 4 mph 1011.7mb 60f 60f
6:50pm 4.5ft 8s 7s 2 4 mph 1011.7mb 60f 60f
5:50pm 4.5ft 8s 8s 2 4 mph 1011.9mb 60f 60f
4:50pm 3.5ft 9s 8s 7
mph
1012.2mb 60f 60f
3:50pm 3.5ft 14s 8s 4 7 mph 1012.5mb 60f 60f
2:50pm 3.5ft 14s 7s 4 7 mph 1012.9mb 60f 60f
1:50pm 3.5ft 9s 8s 4 7 mph 1013.2mb 60f 60f
12:50pm 3.5ft 14s 7s 4 7 mph 1013.6mb 59f 59f
11:50am 3.5ft 8s 8s 4 7 mph 1013.9mb 59f 59f
10:50am 3.5ft 13s 7s  -  2 mph 1014.1mb 60f 59f
9:50am 3.5ft 10s 7s 4
mph
1014mb 59f 58f
8:50am 4ft 8s 7s 4 7 mph 1014mb 59f 58f
7:50am 4.5ft 9s 7s 4 7 mph 1014.2mb 59f 58f
6:50am 4.5ft 10s 7s 4
mph
1013.7mb 59f 58f
5:50am 5ft 9s 7s 4 9 mph 1013mb 59f 58f
4:50am 5ft 9s 8s 7
mph
1012.7mb 59f 58f
3:50am 5ft 9s 8s 7 9 mph 1012.4mb 59f 58f
2:50am 5ft 15s 8s 7 9 mph 1012.7mb 59f 58f
1:50am 4.5ft 10s 8s 7
mph
1013.2mb 59f 58f
12:50am 4.5ft 8s 8s 2 4 mph 1013.3mb 59f 58f
Thu 07/02 11:50pm 4.5ft 9s 8s 2 4 mph 1013.5mb 59f 58f
10:50pm 4.5ft 9s 7s 4 7 mph 1013.4mb 59f 58f
9:50pm 4.5ft 9s 7s 4 7 mph 1013.3mb 59f 58f
8:50pm 5ft 9s 7s 7
mph
1013.5mb 58f 58f
7:50pm 5.5ft 9s 7s 2 4 mph 1013.9mb 58f 59f
6:50pm 5ft 8s 7s 7 9 mph 1013.2mb 58f 59f
5:50pm 5ft 9s 7s 7 9 mph 1012.9mb 58f 58f
4:50pm 5ft 8s 7s 7 9 mph 1013.1mb 59f 58f
3:50pm 5ft 8s 7s 4 7 mph 1013.7mb 59f 59f